Here is the Quick Look data you requested

The Data originates at the National Weather Service, and is made available here by the UAlbany Department of Atmospheric and Environmental Sciences

Surface Observations

KMTN 240349Z AUTO 00000KT 10SM CLR 21/18 A2991 RMK AO2=
KMTN 240409Z AUTO 00000KT 10SM CLR 21/18 A2991 RMK AO2=
KMTN 240429Z AUTO 00000KT 10SM CLR 21/19 A2991 RMK AO2=
KMTN 240449Z AUTO 00000KT 10SM CLR 21/19 A2991 RMK AO2=
KMTN 240509Z AUTO 00000KT 10SM CLR 20/19 A2990 RMK AO2=
KMTN 240529Z AUTO 00000KT 10SM CLR 20/20 A2989 RMK AO2=
KMTN 240549Z AUTO 10SM CLR 20/20 A2989 RMK AO2=
KMTN 240609Z AUTO 00000KT 10SM CLR 20/20 A2988 RMK AO2=
KMTN 240629Z AUTO 00000KT 10SM CLR 20/19 A2988 RMK AO2=
KMTN 240649Z AUTO 00000KT 10SM CLR 20/19 A2988 RMK AO2=
KMTN 240709Z AUTO 00000KT 10SM CLR 19/19 A2988 RMK AO2=
KMTN 240729Z AUTO 00000KT 10SM CLR 19/18 A2987 RMK AO2=
KMTN 240749Z AUTO 00000KT 10SM CLR 20/19 A2987 RMK AO2=
KMTN 240809Z AUTO 00000KT 10SM CLR 20/19 A2987 RMK AO2=
KMTN 240829Z AUTO 00000KT 10SM CLR 19/19 A2987 RMK AO2=
KMTN 240849Z AUTO 00000KT 10SM CLR 19/19 A2987 RMK AO2 LTG DSNT SW=
KMTN 240909Z AUTO 00000KT 10SM CLR 19/18 A2987 RMK AO2=
KMTN 240929Z AUTO 00000KT 10SM CLR 19/18 A2987 RMK AO2=
KMTN 240949Z AUTO 00000KT 10SM SCT110 19/18 A2988 RMK AO2=
KMTN 240954Z 00000KT 10SM SCT110 19/18 A2987 RMK FIRST=
KMTN 241054Z 00000KT 10SM SCT100 20/18 A2990=
KMTN 241153Z 00000KT 10SM BKN060 21/19 A2991 RMK LTG DSNT SE AND W.=
KMTN 241253Z VRB03KT 10SM SCT060 23/18 A2991 RMK LTG DSNT E=
KMTN 241353Z 02010KT 10SM SCT055 25/16 A2991=
KMTN 241453Z 07012KT 10SM SCT055 26/16 A2991=
KMTN 241554Z 06006KT 10SM CLR 27/14 A2990=
KMTN 241654Z 11004KT 10SM CLR 27/14 A2989=
KMTN 241754Z 12003KT 10SM CLR 28/13 A2987=
KMTN 241958Z 14005KT 10SM CLR 28/10 A2985=
KMTN 242055Z 15004KT 10SM CLR 29/12 A2984=
KMTN 242155Z 13004KT 10SM CLR 28/13 A2984=
KMTN 242255Z 14004KT 10SM CLR 27/16 A2984=
KMTN 242354Z 16004KT 10SM CLR 26/16 A2983=
KMTN 250155Z 00000KT 10SM CLR 22/17 A2986 RMK LAST=
KMTN 250209Z AUTO 00000KT 10SM CLR 22/17 A2987 RMK AO2=
KMTN 250229Z AUTO 00000KT 10SM CLR 23/17 A2987 RMK AO2 LTG DSNT E=
KMTN 250249Z AUTO 22003KT 10SM CLR 23/17 A2988 RMK AO2=
KMTN 250309Z AUTO 00000KT 10SM CLR 23/18 A2988 RMK AO2=
KMTN 250329Z AUTO 00000KT 10SM CLR 23/18 A2988 RMK AO2=
KMTN 250349Z AUTO 00000KT 10SM CLR 23/18 A2987 RMK AO2=
KMTN 250409Z AUTO 00000KT 10SM CLR 23/18 A2987 RMK AO2=
KMTN 250429Z AUTO 00000KT 10SM CLR 21/18 A2987 RMK AO2=
KMTN 250449Z AUTO 00000KT 10SM CLR 21/18 A2987 RMK AO2=
KMTN 250509Z AUTO 14003KT 10SM CLR 21/18 A2987 RMK AO2=
KMTN 250529Z AUTO 00000KT 10SM CLR 21/18 A2987 RMK AO2=
KMTN 250549Z AUTO 00000KT 10SM CLR 20/18 A2986 RMK AO2=
KMTN 250609Z AUTO 00000KT 10SM CLR 20/18 A2986 RMK AO2=
KMTN 250629Z AUTO 00000KT 10SM CLR 20/18 A2986 RMK AO2=
KMTN 250649Z AUTO 00000KT 10SM CLR 19/18 A2985 RMK AO2=
KMTN 250709Z AUTO 00000KT 10SM CLR 19/18 A2985 RMK AO2=
KMTN 250729Z AUTO 00000KT 10SM CLR 19/18 A2984 RMK AO2=
KMTN 250749Z AUTO 00000KT 10SM CLR 18/18 A2984 RMK AO2=
KMTN 250809Z AUTO 00000KT 10SM CLR 18/18 A2985 RMK AO2=
KMTN 250829Z AUTO 10SM CLR 18/18 A2985 RMK AO2=
KMTN 250849Z AUTO 00000KT 7SM CLR 18/18 A2985 RMK AO2=
KMTN 250909Z AUTO 00000KT 7SM CLR 18/18 A2986 RMK AO2=
KMTN 250929Z AUTO 29003KT 5SM BR CLR 17/17 A2986 RMK AO2 LTG DSNT SW=
KMTN 250949Z AUTO 00000KT 10SM CLR 18/17 A2986 RMK AO2=
KMTN 250954Z 00000KT 10SM CLR 18/18 A2986 RMK FIRST=